Time;durP1;ratioP1;P1;durP2;ratioP2;P2;SDS_P1;SDS_P2;PMS_P1;PMS_P2;Temp;Humidity;BMP_temperature;BMP_pressure;BME280_temperature;BME280_humidity;BME280_pressure;Samples;Min_cycle;Max_cycle;Signal;HPM_P1;HPM_P2
2022/07/03 00:01:46;;;;;;;3.92;3.63;;;;;;;23.55;51.72;100697.66;5053399;28;20427;-67
2022/07/03 00:04:11;;;;;;;4.10;3.80;;;;;;;23.55;52.13;100703.09;5054869;28;20398;-68
2022/07/03 00:06:37;;;;;;;3.67;3.38;;;;;;;23.56;51.74;100712.09;5054258;28;20509;-67
2022/07/03 00:09:04;;;;;;;3.70;3.40;;;;;;;23.55;51.96;100714.00;5054506;28;20036;-67
2022/07/03 00:11:29;;;;;;;4.18;3.83;;;;;;;23.56;51.90;100717.56;5054130;28;20494;-67
2022/07/03 00:13:55;;;;;;;3.95;3.65;;;;;;;23.56;51.72;100720.28;5054078;28;20029;-68
2022/07/03 00:16:20;;;;;;;3.78;3.47;;;;;;;23.55;51.97;100718.66;5054194;28;20104;-67
2022/07/03 00:18:46;;;;;;;3.70;3.40;;;;;;;23.56;51.77;100712.94;5053739;28;20017;-67
2022/07/03 00:21:11;;;;;;;4.10;3.70;;;;;;;23.56;51.85;100720.28;5054017;28;20367;-67
2022/07/03 00:23:44;;;;;;;4.00;3.63;;;;;;;23.53;51.63;100718.09;5053884;28;20108;-68
2022/07/03 00:26:11;;;;;;;4.00;3.70;;;;;;;23.53;52.02;100710.72;5053597;28;20048;-68
2022/07/03 00:28:36;;;;;;;3.70;3.40;;;;;;;23.54;52.04;100708.81;5052936;28;20037;-67
2022/07/03 00:31:01;;;;;;;3.97;3.67;;;;;;;23.55;51.96;100711.28;5035890;28;20387;-67
2022/07/03 00:33:27;;;;;;;3.60;3.30;;;;;;;23.51;52.18;100710.19;5053720;28;20064;-67
2022/07/03 00:35:54;;;;;;;3.90;3.60;;;;;;;23.54;52.27;100708.81;5053675;28;20025;-67
2022/07/03 00:38:20;;;;;;;3.78;3.47;;;;;;;23.55;51.87;100713.19;5053573;28;20070;-67
2022/07/03 00:40:45;;;;;;;4.00;3.70;;;;;;;23.55;52.11;100715.94;5052352;28;20033;-68
2022/07/03 00:43:10;;;;;;;3.50;3.28;;;;;;;23.54;52.09;100712.38;5053886;28;20066;-67
2022/07/03 00:45:36;;;;;;;3.28;3.08;;;;;;;23.55;52.03;100707.75;5035943;28;20039;-67
2022/07/03 00:48:01;;;;;;;3.22;3.03;;;;;;;23.54;52.29;100711.53;5060436;28;20078;-67
2022/07/03 00:50:35;;;;;;;3.60;3.30;;;;;;;23.52;51.59;100706.34;5072140;28;20050;-68
2022/07/03 00:53:04;;;;;;;3.80;3.50;;;;;;;23.55;51.89;100715.94;5072292;28;20027;-67
2022/07/03 00:55:29;;;;;;;3.35;3.05;;;;;;;23.54;52.39;100714.28;5073299;28;20040;-67
2022/07/03 00:57:55;;;;;;;3.05;2.85;;;;;;;23.53;52.26;100712.66;5072767;28;20103;-67
2022/07/03 01:00:21;;;;;;;3.47;3.17;;;;;;;23.53;52.52;100718.09;5073595;28;20032;-67
2022/07/03 01:02:59;;;;;;;3.30;3.00;;;;;;;23.54;52.27;100719.72;5073239;28;20024;-67
2022/07/03 01:06:03;;;;;;;2.97;2.75;;;;;;;23.52;52.18;100719.19;5073487;28;20024;-68
2022/07/03 01:08:50;;;;;;;3.25;3.05;;;;;;;23.56;52.87;100723.84;5031085;28;20183;-67
2022/07/03 01:11:39;;;;;;;2.90;2.70;;;;;;;23.55;51.84;100726.84;5031128;28;20042;-67
2022/07/03 01:14:23;;;;;;;3.03;2.83;;;;;;;23.55;52.73;100724.91;5031145;28;20033;-68
2022/07/03 01:16:54;;;;;;;2.97;2.78;;;;;;;23.52;52.21;100721.91;5031107;28;20503;-67
2022/07/03 01:19:25;;;;;;;2.90;2.70;;;;;;;23.52;52.40;100719.19;5031245;28;20041;-67
2022/07/03 01:21:53;;;;;;;2.60;2.40;;;;;;;23.51;52.14;100715.63;5031078;28;20045;-67
2022/07/03 01:24:39;;;;;;;2.95;2.75;;;;;;;23.53;52.93;100715.38;5030692;28;20053;-68
2022/07/03 01:27:07;;;;;;;3.30;2.80;;;;;;;23.51;52.26;100703.88;5014657;28;20102;-67
2022/07/03 01:29:41;;;;;;;2.70;2.50;;;;;;;23.51;52.07;100710.19;5030748;28;20029;-68
2022/07/03 01:32:07;;;;;;;2.75;2.55;;;;;;;23.50;52.43;100705.81;5031105;28;20045;-68
2022/07/03 01:34:34;;;;;;;2.70;2.50;;;;;;;23.50;52.46;100719.44;5014468;28;20472;-68
2022/07/03 01:36:59;;;;;;;2.60;2.40;;;;;;;23.50;52.41;100722.16;5030793;28;20514;-67
2022/07/03 01:39:26;;;;;;;2.70;2.50;;;;;;;23.50;52.47;100729.53;5030878;28;20033;-67
2022/07/03 01:41:53;;;;;;;2.50;2.30;;;;;;;23.51;52.62;100747.53;5030869;28;20108;-67
2022/07/03 01:44:18;;;;;;;2.40;2.20;;;;;;;23.50;52.46;100763.09;5056549;28;20060;-67
2022/07/03 01:46:45;;;;;;;2.38;2.17;;;;;;;23.52;52.73;100758.19;5073055;28;20344;-67
2022/07/03 01:49:12;;;;;;;2.55;2.35;;;;;;;23.49;52.47;100757.91;5054674;28;20494;-68
2022/07/03 01:51:39;;;;;;;2.67;2.47;;;;;;;23.49;52.56;100749.72;5051885;28;20029;-68
2022/07/03 01:54:05;;;;;;;2.50;2.30;;;;;;;23.50;52.56;100751.38;5051832;28;20071;-68
2022/07/03 01:56:30;;;;;;;2.40;2.22;;;;;;;23.48;52.95;100759.00;5052697;28;20383;-68
2022/07/03 01:59:07;;;;;;;2.30;2.10;;;;;;;23.50;52.36;100762.28;5051687;28;20033;-67
2022/07/03 02:01:41;;;;;;;2.40;2.20;;;;;;;23.49;52.65;100763.34;5051482;28;20032;-68
2022/07/03 02:04:28;;;;;;;2.75;2.45;;;;;;;23.52;53.12;100771.81;5052863;28;20032;-68
2022/07/03 02:07:18;;;;;;;2.13;2.03;;;;;;;23.51;53.08;100764.75;5052500;28;20471;-68
2022/07/03 02:09:49;;;;;;;1.90;1.80;;;;;;;23.49;52.28;100749.72;5053952;28;20033;-68
2022/07/03 02:12:15;;;;;;;2.30;2.10;;;;;;;23.48;52.50;100750.81;5056722;28;20021;-68
2022/07/03 02:14:44;;;;;;;1.95;1.85;;;;;;;23.48;52.28;100759.00;5038945;28;20028;-68
2022/07/03 02:17:15;;;;;;;2.22;2.03;;;;;;;23.49;52.79;100760.63;5038697;28;20025;-68
2022/07/03 02:20:04;;;;;;;1.90;1.80;;;;;;;23.50;53.20;100759.56;5056600;28;20040;-68
2022/07/03 02:22:54;;;;;;;2.28;1.70;;;;;;;23.49;52.55;100763.34;5056232;28;20459;-68
2022/07/03 02:25:23;;;;;;;2.20;2.00;;;;;;;23.48;52.55;100772.63;5055891;28;20440;-67
2022/07/03 02:27:48;;;;;;;2.60;1.98;;;;;;;23.48;52.91;100770.72;5056470;28;20032;-67
2022/07/03 02:30:15;;;;;;;1.90;1.80;;;;;;;23.47;52.80;100768.25;5056453;28;20416;-67
2022/07/03 02:32:45;;;;;;;2.10;2.00;;;;;;;23.47;52.21;100779.16;5038404;28;20025;-67
2022/07/03 02:35:11;;;;;;;1.70;1.60;;;;;;;23.47;52.61;100774.53;5056075;28;20041;-68
2022/07/03 02:37:57;;;;;;;2.17;1.98;;;;;;;23.48;53.33;100775.38;5056194;28;20051;-67
2022/07/03 02:40:27;;;;;;;1.80;1.70;;;;;;;23.48;52.34;100786.28;5056456;28;20037;-68
2022/07/03 02:43:08;;;;;;;1.77;1.67;;;;;;;23.47;52.66;100779.16;5056142;28;20029;-68
2022/07/03 02:45:50;;;;;;;1.80;1.70;;;;;;;23.48;53.12;100772.63;5054997;28;20053;-67
2022/07/03 02:48:30;;;;;;;1.83;1.73;;;;;;;23.49;53.19;100779.72;5063096;28;20036;-67
2022/07/03 02:51:09;;;;;;;1.60;1.50;;;;;;;23.48;53.19;100780.81;5074864;28;20032;-67
2022/07/03 02:53:41;;;;;;;2.17;1.98;;;;;;;23.47;52.84;100785.44;5074819;28;20174;-69
2022/07/03 02:56:24;;;;;;;1.63;1.52;;;;;;;23.47;53.17;100779.16;5074424;28;20551;-67
2022/07/03 02:59:08;;;;;;;1.70;1.60;;;;;;;23.47;52.64;100779.16;5074304;28;20112;-67
2022/07/03 03:01:33;;;;;;;1.98;1.77;;;;;;;23.47;52.62;100773.72;5075577;28;20040;-68
2022/07/03 03:04:12;;;;;;;1.77;1.67;;;;;;;23.48;52.76;100765.25;5075996;28;20025;-68
2022/07/03 03:06:37;;;;;;;2.30;2.10;;;;;;;23.48;52.90;100775.38;5075749;28;20421;-68
2022/07/03 03:09:03;;;;;;;1.85;1.75;;;;;;;23.46;52.79;100777.50;5075341;28;20021;-68
2022/07/03 03:11:37;;;;;;;2.05;1.92;;;;;;;23.45;52.68;100782.16;5076011;28;20044;-67
2022/07/03 03:14:03;;;;;;;1.98;1.77;;;;;;;23.44;53.04;100784.06;5074339;28;20032;-67
2022/07/03 03:16:28;;;;;;;1.85;1.75;;;;;;;23.46;53.09;100780.22;5057708;28;20020;-67
2022/07/03 03:18:53;;;;;;;1.70;1.60;;;;;;;23.46;53.13;100777.50;5075111;28;20024;-68
2022/07/03 03:21:19;;;;;;;1.92;1.83;;;;;;;23.44;53.31;100780.53;5074833;28;20020;-67
2022/07/03 03:23:49;;;;;;;2.00;1.88;;;;;;;23.44;53.08;100781.34;5075503;28;20020;-67
2022/07/03 03:26:22;;;;;;;1.90;1.80;;;;;;;23.44;53.13;100780.53;5075005;28;20398;-67
2022/07/03 03:28:47;;;;;;;2.00;1.80;;;;;;;23.43;53.25;100782.41;5075265;28;20032;-67
2022/07/03 03:31:13;;;;;;;1.50;1.40;;;;;;;23.39;53.25;100766.88;5075553;28;20107;-66
2022/07/03 03:33:39;;;;;;;1.50;1.40;;;;;;;23.44;53.25;100775.88;5075213;28;20040;-67
2022/07/03 03:36:06;;;;;;;1.70;1.60;;;;;;;23.42;53.00;100783.50;5075199;28;20052;-67
2022/07/03 03:38:32;;;;;;;1.98;1.77;;;;;;;23.43;53.14;100778.88;5073594;28;20031;-67
2022/07/03 03:40:57;;;;;;;1.80;1.70;;;;;;;23.42;52.82;100778.06;5075088;28;20025;-67
2022/07/03 03:43:23;;;;;;;1.60;1.50;;;;;;;23.44;53.13;100778.63;5073948;28;20035;-67
2022/07/03 03:45:48;;;;;;;1.60;1.50;;;;;;;23.45;53.24;100782.16;5074977;28;20051;-67
2022/07/03 03:48:14;;;;;;;1.70;1.60;;;;;;;23.44;53.23;100780.53;5067578;28;20025;-67
2022/07/03 03:50:42;;;;;;;1.70;1.60;;;;;;;23.42;53.31;100775.34;5054926;28;20028;-67
2022/07/03 03:53:08;;;;;;;1.75;1.65;;;;;;;23.43;53.07;100779.69;5053782;28;20040;-67
2022/07/03 03:55:33;;;;;;;1.50;1.40;;;;;;;23.45;53.03;100787.59;5055129;28;20021;-67
2022/07/03 03:58:01;;;;;;;1.65;1.55;;;;;;;23.43;53.56;100782.41;5054504;28;20491;-67
2022/07/03 04:00:27;;;;;;;1.90;1.80;;;;;;;23.41;53.17;100781.88;5055520;28;20021;-67
2022/07/03 04:02:52;;;;;;;1.70;1.60;;;;;;;23.41;53.13;100781.88;5054879;28;20028;-68
2022/07/03 04:05:18;;;;;;;1.60;1.50;;;;;;;23.43;53.33;100778.88;5054861;28;20091;-68
2022/07/03 04:07:43;;;;;;;1.80;1.70;;;;;;;23.42;53.27;100780.78;5054913;28;20033;-68
2022/07/03 04:10:09;;;;;;;1.75;1.60;;;;;;;23.41;53.05;100781.06;5054830;28;20017;-68
2022/07/03 04:12:34;;;;;;;1.83;1.73;;;;;;;23.43;53.17;100785.13;5054708;28;20078;-68
2022/07/03 04:15:00;;;;;;;2.10;1.90;;;;;;;23.43;53.10;100787.88;5054411;28;20481;-68
2022/07/03 04:17:26;;;;;;;1.45;1.35;;;;;;;23.44;53.05;100794.16;5054504;28;20025;-68
2022/07/03 04:19:51;;;;;;;1.60;1.50;;;;;;;23.43;53.16;100785.13;5054404;28;20025;-68
2022/07/03 04:22:17;;;;;;;1.73;1.63;;;;;;;23.42;53.01;100783.50;5053950;28;20048;-68
2022/07/03 04:24:42;;;;;;;1.70;1.60;;;;;;;23.44;53.20;100786.78;5054274;28;20056;-68
2022/07/03 04:27:07;;;;;;;1.70;1.60;;;;;;;23.44;52.95;100780.53;5053889;28;20082;-68
2022/07/03 04:29:33;;;;;;;1.65;1.55;;;;;;;23.44;53.52;100786.78;5053887;28;20444;-68
2022/07/03 04:31:58;;;;;;;1.63;1.52;;;;;;;23.43;53.31;100787.88;5053103;28;20021;-68
2022/07/03 04:34:24;;;;;;;1.60;1.50;;;;;;;23.44;53.27;100775.88;5053725;28;20021;-68
2022/07/03 04:36:49;;;;;;;1.50;1.40;;;;;;;23.43;53.57;100782.41;5053930;28;20040;-67
2022/07/03 04:39:15;;;;;;;1.52;1.42;;;;;;;23.42;53.34;100772.59;5054803;28;20025;-67
2022/07/03 04:41:40;;;;;;;1.60;1.50;;;;;;;23.42;53.52;100775.34;5054086;28;20383;-67
2022/07/03 04:44:05;;;;;;;1.70;1.60;;;;;;;23.44;53.13;100786.78;5053827;28;20371;-67
2022/07/03 04:46:31;;;;;;;1.90;1.70;;;;;;;23.46;52.99;100785.69;5054098;28;20021;-67
2022/07/03 04:48:56;;;;;;;1.55;1.45;;;;;;;23.44;53.02;100775.88;5066157;28;20052;-67
2022/07/03 04:51:22;;;;;;;2.25;2.05;;;;;;;23.45;52.97;100779.44;5074186;28;20041;-67
2022/07/03 04:53:47;;;;;;;1.70;1.60;;;;;;;23.42;53.30;100775.34;5074297;28;20459;-68
2022/07/03 04:56:13;;;;;;;1.67;1.58;;;;;;;23.43;53.25;100774.22;5073943;28;20107;-68
2022/07/03 04:58:38;;;;;;;1.60;1.50;;;;;;;23.43;53.24;100779.69;5072849;28;20070;-68
2022/07/03 05:01:04;;;;;;;1.50;1.40;;;;;;;23.44;53.09;100778.63;5074046;28;20506;-67
2022/07/03 05:03:29;;;;;;;1.70;1.60;;;;;;;23.44;53.30;100778.63;5073933;28;20024;-68
2022/07/03 05:05:54;;;;;;;2.00;1.88;;;;;;;23.44;53.23;100784.06;5074098;28;20032;-68
2022/07/03 05:08:20;;;;;;;1.50;1.40;;;;;;;23.44;53.21;100780.53;5073821;28;20039;-68
2022/07/03 05:10:46;;;;;;;1.67;1.58;;;;;;;23.44;53.35;100783.25;5073912;28;20032;-68
2022/07/03 05:13:12;;;;;;;1.92;1.70;;;;;;;23.43;53.11;100776.97;5074147;28;20031;-68
2022/07/03 05:15:37;;;;;;;1.48;1.38;;;;;;;23.43;53.08;100778.88;5074012;28;20486;-68
2022/07/03 05:18:03;;;;;;;1.50;1.40;;;;;;;23.42;53.23;100778.06;5073814;28;20478;-68
2022/07/03 05:20:28;;;;;;;1.60;1.50;;;;;;;23.42;52.90;100783.50;5073148;28;20020;-67
2022/07/03 05:22:58;;;;;;;1.45;1.35;;;;;;;23.43;52.98;100784.31;5073622;28;20082;-67
2022/07/03 05:25:23;;;;;;;1.40;1.30;;;;;;;23.43;53.10;100782.41;5073240;28;20049;-68
2022/07/03 05:27:55;;;;;;;1.40;1.30;;;;;;;23.46;52.63;100785.69;5073092;28;20097;-68
2022/07/03 05:30:21;;;;;;;1.40;1.30;;;;;;;23.44;53.08;100780.53;5073431;28;20036;-67
2022/07/03 05:32:47;;;;;;;1.50;1.40;;;;;;;23.43;52.67;100782.41;5073277;28;20110;-68
2022/07/03 05:35:12;;;;;;;1.30;1.20;;;;;;;23.45;52.87;100790.34;5072949;28;20112;-68
2022/07/03 05:37:38;;;;;;;1.40;1.30;;;;;;;23.45;52.76;100787.59;5073151;28;20063;-68
2022/07/03 05:40:04;;;;;;;1.30;1.20;;;;;;;23.44;52.40;100785.97;5073174;28;20028;-68
2022/07/03 05:42:29;;;;;;;1.20;1.10;;;;;;;23.43;52.71;100789.78;5073179;28;20027;-68
2022/07/03 05:44:55;;;;;;;1.23;1.13;;;;;;;23.44;52.26;100786.78;5076440;28;20021;-68
2022/07/03 05:47:20;;;;;;;1.52;1.20;;;;;;;23.43;52.37;100785.13;5077289;28;20035;-68
2022/07/03 05:49:46;;;;;;;0.98;0.95;;;;;;;23.43;52.42;100785.13;5058144;28;20383;-68
2022/07/03 05:52:11;;;;;;;1.40;1.20;;;;;;;23.43;52.19;100776.97;5057157;28;20062;-68
2022/07/03 05:54:37;;;;;;;0.80;0.80;;;;;;;23.43;52.09;100787.88;5057093;28;20142;-68
2022/07/03 05:57:02;;;;;;;1.23;1.10;;;;;;;23.44;52.21;100786.78;5056987;28;20349;-68
2022/07/03 05:59:28;;;;;;;1.17;0.90;;;;;;;23.43;51.76;100790.59;5057229;28;20330;-68
2022/07/03 06:01:53;;;;;;;0.90;0.90;;;;;;;23.46;52.01;100782.97;5056883;28;20418;-67
2022/07/03 06:04:19;;;;;;;1.10;1.00;;;;;;;23.43;51.71;100790.59;5056682;28;20442;-67
2022/07/03 06:06:44;;;;;;;0.82;0.82;;;;;;;23.43;51.58;100787.88;5056564;28;20021;-67
2022/07/03 06:09:10;;;;;;;0.85;0.85;;;;;;;23.46;51.56;100796.59;5056803;28;20017;-67
2022/07/03 06:11:35;;;;;;;0.80;0.80;;;;;;;23.47;51.57;100795.53;5056454;28;20028;-67
2022/07/03 06:14:00;;;;;;;1.10;1.00;;;;;;;23.46;51.15;100799.31;5056375;28;20071;-67
2022/07/03 06:16:26;;;;;;;0.80;0.80;;;;;;;23.44;51.13;100792.25;5056789;28;20040;-67
2022/07/03 06:18:51;;;;;;;0.90;0.75;;;;;;;23.47;51.00;100785.44;5056560;28;20025;-67
2022/07/03 06:21:17;;;;;;;0.75;0.75;;;;;;;23.49;50.88;100793.34;5055080;28;20021;-67
2022/07/03 06:23:43;;;;;;;0.95;0.80;;;;;;;23.48;50.68;100794.47;5056487;28;20036;-67
2022/07/03 06:26:08;;;;;;;0.90;0.80;;;;;;;23.49;50.80;100796.09;5056070;28;20052;-67
2022/07/03 06:28:34;;;;;;;0.90;0.80;;;;;;;23.47;50.50;100793.63;5056137;28;20036;-67
2022/07/03 06:30:59;;;;;;;0.80;0.80;;;;;;;23.47;50.19;100795.53;5056700;28;20033;-67
2022/07/03 06:33:25;;;;;;;0.60;0.60;;;;;;;23.49;50.33;100793.34;5056249;28;20160;-68
2022/07/03 06:35:50;;;;;;;0.70;0.70;;;;;;;23.47;49.97;100795.53;5056313;28;20046;-67
2022/07/03 06:38:15;;;;;;;0.70;0.70;;;;;;;23.46;50.17;100799.31;5056292;28;20519;-67
2022/07/03 06:40:41;;;;;;;0.70;0.70;;;;;;;23.49;49.52;100799.66;5056216;28;20379;-67
2022/07/03 06:43:06;;;;;;;0.80;0.80;;;;;;;23.48;49.79;100797.19;5056189;28;20447;-67
2022/07/03 06:45:32;;;;;;;0.80;0.80;;;;;;;23.47;49.95;100804.53;5056016;28;20468;-67
2022/07/03 06:47:57;;;;;;;0.70;0.70;;;;;;;23.47;49.63;100815.44;5059070;28;20109;-67
2022/07/03 06:50:23;;;;;;;0.70;0.70;;;;;;;23.43;49.70;100806.16;5074688;28;20105;-67
2022/07/03 06:52:48;;;;;;;0.70;0.70;;;;;;;23.47;49.38;100815.44;5076020;28;20052;-67
2022/07/03 06:55:14;;;;;;;0.52;0.52;;;;;;;23.47;49.48;100815.44;5075201;28;20020;-67
2022/07/03 06:57:39;;;;;;;0.60;0.60;;;;;;;23.47;49.37;100817.34;5075828;28;20029;-67
2022/07/03 07:00:07;;;;;;;0.60;0.60;;;;;;;23.47;49.24;100822.81;5075572;28;20559;-67
2022/07/03 07:02:32;;;;;;;0.60;0.60;;;;;;;23.49;48.98;100820.63;5075807;28;20033;-67
2022/07/03 07:04:58;;;;;;;0.60;0.60;;;;;;;23.48;48.73;100825.28;5075754;28;20032;-67
2022/07/03 07:07:23;;;;;;;0.80;0.52;;;;;;;23.41;48.98;100814.59;5075796;28;20035;-67
2022/07/03 07:09:49;;;;;;;0.55;0.55;;;;;;;23.46;48.64;100821.16;5075418;28;20020;-68
2022/07/03 07:12:15;;;;;;;0.50;0.50;;;;;;;23.48;48.74;100816.28;5075373;28;20054;-68
2022/07/03 07:14:40;;;;;;;0.75;0.63;;;;;;;23.46;48.42;100821.16;5075307;28;20078;-68
2022/07/03 07:17:05;;;;;;;0.85;0.60;;;;;;;23.47;48.35;100814.63;5076219;28;20048;-68
2022/07/03 07:19:31;;;;;;;0.60;0.60;;;;;;;23.49;48.45;100815.19;5075571;28;20486;-68
2022/07/03 07:21:57;;;;;;;0.50;0.50;;;;;;;23.48;48.14;100824.47;5075516;28;20032;-68
2022/07/03 07:24:22;;;;;;;0.60;0.60;;;;;;;23.46;48.15;100810.25;5074962;28;20044;-68
2022/07/03 07:26:48;;;;;;;0.60;0.60;;;;;;;23.47;47.98;100807.25;5075052;28;20025;-68
2022/07/03 07:29:13;;;;;;;0.57;0.57;;;;;;;23.49;48.12;100804.25;5073733;28;20039;-68
2022/07/03 07:31:38;;;;;;;0.57;0.57;;;;;;;23.48;48.10;100800.72;5075268;28;20028;-67
2022/07/03 07:34:04;;;;;;;1.02;0.68;;;;;;;23.48;48.12;100813.56;5075235;28;20021;-67
2022/07/03 07:36:31;;;;;;;0.50;0.50;;;;;;;23.48;47.92;100806.19;5075338;28;20025;-69
2022/07/03 07:38:56;;;;;;;0.60;0.60;;;;;;;23.48;47.91;100819.00;5073612;28;20025;-67
2022/07/03 07:41:22;;;;;;;0.60;0.60;;;;;;;23.49;48.18;100817.91;5075176;28;20352;-67
2022/07/03 07:43:47;;;;;;;0.95;0.60;;;;;;;23.50;47.87;100819.56;5075043;28;20421;-67
2022/07/03 07:46:13;;;;;;;0.60;0.60;;;;;;;23.50;47.89;100823.09;5075057;28;20516;-67
2022/07/03 07:48:38;;;;;;;0.80;0.80;;;;;;;23.50;47.94;100831.28;5067050;28;20379;-67
2022/07/03 07:51:04;;;;;;;0.52;0.52;;;;;;;23.50;48.22;100825.81;5053427;28;20467;-67
2022/07/03 07:53:29;;;;;;;0.50;0.50;;;;;;;23.52;47.80;100828.28;5054828;28;20040;-68
2022/07/03 07:55:54;;;;;;;0.77;0.77;;;;;;;23.53;47.96;100821.75;5054819;28;20021;-68
2022/07/03 07:58:22;;;;;;;0.50;0.50;;;;;;;23.52;47.80;100817.38;5054724;28;20451;-68
2022/07/03 08:06:15;;;;;;;0.43;0.43;;;;;;;23.50;48.10;100816.81;5054555;28;20086;-68
2022/07/03 08:08:40;;;;;;;0.80;0.80;;;;;;;23.55;47.93;100811.41;5053651;28;20429;-67
2022/07/03 08:11:06;;;;;;;0.55;0.55;;;;;;;23.56;48.05;100815.75;5054474;28;20375;-67
2022/07/03 08:13:31;;;;;;;1.08;0.80;;;;;;;23.57;47.78;100810.03;5054468;28;20367;-67
2022/07/03 08:15:57;;;;;;;0.77;0.70;;;;;;;23.59;47.79;100816.06;5054355;28;20360;-67
2022/07/03 08:18:22;;;;;;;0.82;0.50;;;;;;;23.59;48.00;100816.06;5053997;28;20040;-67
2022/07/03 08:20:48;;;;;;;0.50;0.50;;;;;;;23.60;48.08;100811.44;5054311;28;20051;-67
2022/07/03 08:23:14;;;;;;;0.50;0.50;;;;;;;23.60;47.94;100816.88;5054018;28;20025;-67
2022/07/03 08:25:39;;;;;;;0.40;0.40;;;;;;;23.62;47.93;100814.72;5054120;28;20056;-67
2022/07/03 08:28:05;;;;;;;0.60;0.60;;;;;;;23.61;47.52;100823.97;5054213;28;20033;-67
2022/07/03 08:30:30;;;;;;;0.50;0.50;;;;;;;23.61;47.46;100818.50;5054090;28;20055;-67
2022/07/03 08:32:56;;;;;;;0.60;0.60;;;;;;;23.61;47.61;100807.59;5053750;28;20025;-68
2022/07/03 08:35:22;;;;;;;0.45;0.45;;;;;;;23.62;47.56;100809.25;5054053;28;20032;-67
2022/07/03 08:37:48;;;;;;;1.08;0.50;;;;;;;23.62;47.53;100815.53;5053595;28;20048;-68
2022/07/03 08:40:14;;;;;;;0.60;0.60;;;;;;;23.60;47.70;100805.97;5053995;28;20025;-67
2022/07/03 08:42:52;;;;;;;0.60;0.60;;;;;;;23.63;47.48;100809.00;5053587;28;20112;-68
2022/07/03 08:45:18;;;;;;;1.75;0.77;;;;;;;23.66;47.36;100815.00;5053874;28;20025;-68
2022/07/03 08:47:45;;;;;;;0.50;0.50;;;;;;;23.65;47.43;100814.19;5053597;28;20021;-67
2022/07/03 08:50:19;;;;;;;0.90;0.60;;;;;;;23.64;47.57;100812.53;5073607;28;20044;-68
2022/07/03 08:52:45;;;;;;;0.50;0.50;;;;;;;23.67;47.57;100812.00;5073399;28;20419;-67
2022/07/03 08:55:13;;;;;;;0.50;0.50;;;;;;;23.66;47.25;100804.91;5073716;28;20017;-68
2022/07/03 08:57:40;;;;;;;0.50;0.50;;;;;;;23.66;47.48;100804.91;5073305;28;20028;-67
2022/07/03 09:00:07;;;;;;;0.77;0.57;;;;;;;23.69;47.43;100809.84;5073277;28;20028;-68
2022/07/03 09:02:33;;;;;;;0.50;0.50;;;;;;;23.68;47.15;100810.94;5073600;28;20424;-68
2022/07/03 09:04:59;;;;;;;0.77;0.60;;;;;;;23.70;47.49;100806.03;5073348;28;20020;-68
2022/07/03 09:07:26;;;;;;;0.75;0.60;;;;;;;23.69;47.59;100809.84;5073303;28;20475;-68
2022/07/03 09:09:51;;;;;;;0.50;0.50;;;;;;;23.70;47.17;100816.94;5073212;28;20464;-68
2022/07/03 09:12:16;;;;;;;0.75;0.65;;;;;;;23.71;47.18;100806.84;5073986;28;20031;-67
2022/07/03 09:14:42;;;;;;;0.55;0.55;;;;;;;23.71;47.15;100806.84;5072418;28;20340;-67
2022/07/03 09:17:08;;;;;;;0.50;0.50;;;;;;;23.72;46.92;100805.78;5073466;28;20370;-68
2022/07/03 09:19:41;;;;;;;0.50;0.50;;;;;;;23.70;47.25;100808.75;5072815;28;20028;-67
2022/07/03 09:22:26;;;;;;;0.52;0.52;;;;;;;23.71;46.99;100818.56;5073510;28;20029;-67
2022/07/03 09:25:02;;;;;;;0.52;0.52;;;;;;;23.69;46.94;100809.84;5073168;28;20124;-68
2022/07/03 09:27:28;;;;;;;0.50;0.50;;;;;;;23.73;46.86;100810.13;5073443;28;20025;-68
2022/07/03 09:29:58;;;;;;;0.45;0.45;;;;;;;23.69;46.91;100811.75;5073433;28;20414;-68
2022/07/03 09:32:23;;;;;;;0.60;0.60;;;;;;;23.69;46.95;100809.84;5073977;28;20028;-67
2022/07/03 09:34:49;;;;;;;0.52;0.52;;;;;;;23.72;46.47;100809.31;5076047;28;20028;-66
2022/07/03 09:37:17;;;;;;;0.80;0.68;;;;;;;23.72;46.63;100808.50;5076158;28;20036;-67
2022/07/03 09:39:42;;;;;;;0.50;0.50;;;;;;;23.72;46.35;100808.50;5058731;28;20029;-68
2022/07/03 09:42:11;;;;;;;0.60;0.60;;;;;;;23.72;46.52;100808.50;5075844;28;20021;-68
2022/07/03 09:44:41;;;;;;;0.60;0.60;;;;;;;23.67;46.94;100800.28;5074154;28;20031;-66
2022/07/03 09:47:07;;;;;;;0.85;0.52;;;;;;;23.70;46.71;100806.03;5074018;28;20158;-66
2022/07/03 09:50:04;;;;;;;0.52;0.52;;;;;;;23.72;46.97;100797.59;5059199;28;20124;-67
2022/07/03 09:52:37;;;;;;;0.63;0.60;;;;;;;23.69;46.59;100788.00;5053195;28;20128;-67
2022/07/03 09:55:08;;;;;;;1.05;0.70;;;;;;;23.75;46.41;100803.31;5053044;28;20059;-67
2022/07/03 09:57:34;;;;;;;1.30;0.63;;;;;;;23.75;46.08;100797.03;5052998;28;20433;-67
2022/07/03 10:00:21;;;;;;;0.60;0.60;;;;;;;23.77;46.04;100803.06;5053039;28;20029;-67
2022/07/03 10:02:56;;;;;;;0.50;0.50;;;;;;;23.76;45.79;100799.50;5053079;28;20110;-67
2022/07/03 10:05:22;;;;;;;0.75;0.52;;;;;;;23.77;45.60;100803.06;5052932;28;20036;-67
2022/07/03 10:07:57;;;;;;;0.60;0.60;;;;;;;23.74;45.65;100804.41;5053355;28;20075;-67
2022/07/03 10:10:24;;;;;;;0.70;0.70;;;;;;;23.76;45.19;100799.50;5051506;28;20045;-68
2022/07/03 10:12:51;;;;;;;0.50;0.50;;;;;;;23.77;45.54;100798.41;5052847;28;20025;-68
2022/07/03 10:15:16;;;;;;;0.50;0.50;;;;;;;23.77;45.22;100797.59;5052792;28;20032;-68
2022/07/03 10:17:42;;;;;;;0.50;0.50;;;;;;;23.79;45.80;100796.25;5052731;28;20446;-68
2022/07/03 10:20:09;;;;;;;0.40;0.40;;;;;;;23.77;45.98;100798.41;5052765;28;20028;-68
2022/07/03 10:22:34;;;;;;;0.40;0.40;;;;;;;23.77;45.60;100800.34;5035438;28;20029;-67
2022/07/03 10:24:59;;;;;;;0.50;0.40;;;;;;;23.76;45.28;100794.03;5034934;28;20480;-67
2022/07/03 10:27:25;;;;;;;0.50;0.50;;;;;;;23.79;45.18;100801.69;5051781;28;20415;-68
2022/07/03 10:29:50;;;;;;;0.90;0.47;;;;;;;23.80;45.20;100795.16;5052765;28;20375;-68
2022/07/03 10:32:16;;;;;;;0.50;0.50;;;;;;;23.84;45.04;100797.41;5038346;28;20103;-67
2022/07/03 10:34:41;;;;;;;0.35;0.35;;;;;;;23.84;45.26;100800.13;5038581;28;20048;-68
2022/07/03 10:37:07;;;;;;;0.50;0.50;;;;;;;23.81;44.35;100799.56;5054827;28;20017;-67
2022/07/03 10:39:49;;;;;;;0.38;0.38;;;;;;;23.81;44.82;100798.75;5056302;28;20083;-67
2022/07/03 10:45:07;;;;;;;0.52;0.50;;;;;;;23.79;44.27;100798.97;5056184;28;20455;-67
2022/07/03 10:47:37;;;;;;;0.55;0.55;;;;;;;23.77;45.18;100795.69;5055817;28;20036;-67
2022/07/03 10:50:04;;;;;;;1.42;0.70;;;;;;;23.79;44.80;100801.69;5073225;28;20086;-67
2022/07/03 10:52:29;;;;;;;0.47;0.47;;;;;;;23.77;44.92;100790.22;5074687;28;20020;-67
2022/07/03 10:54:56;;;;;;;0.47;0.47;;;;;;;23.74;44.58;100790.75;5074828;28;20412;-67
2022/07/03 10:57:21;;;;;;;0.88;0.60;;;;;;;23.75;44.59;100792.41;5075602;28;20028;-67
2022/07/03 10:59:47;;;;;;;0.50;0.50;;;;;;;23.77;44.39;100800.34;5075890;28;20082;-67
2022/07/03 11:02:22;;;;;;;1.02;0.50;;;;;;;23.74;44.82;100798.94;5075562;28;20028;-67
2022/07/03 11:04:56;;;;;;;0.50;0.50;;;;;;;23.75;44.73;100802.47;5075519;28;20078;-67
2022/07/03 11:07:22;;;;;;;0.40;0.40;;;;;;;23.76;44.43;100793.22;5075834;28;20024;-68
2022/07/03 11:10:08;;;;;;;0.52;0.52;;;;;;;23.74;44.62;100793.50;5075744;28;20542;-67
2022/07/03 11:12:55;;;;;;;0.73;0.47;;;;;;;23.77;44.69;100795.69;5074359;28;20044;-68
2022/07/03 11:15:31;;;;;;;0.50;0.50;;;;;;;23.74;44.66;100796.22;5075688;28;20065;-67
2022/07/03 11:18:27;;;;;;;0.40;0.40;;;;;;;23.75;44.79;100795.16;5075227;28;20093;-67
2022/07/03 11:20:52;;;;;;;1.00;0.52;;;;;;;23.75;44.02;100789.69;5075266;28;20543;-67
2022/07/03 11:23:25;;;;;;;0.50;0.50;;;;;;;23.73;44.41;100778.22;5075241;28;20032;-67
2022/07/03 11:25:51;;;;;;;0.57;0.57;;;;;;;23.75;44.26;100777.94;5075375;28;20040;-67
2022/07/03 11:28:31;;;;;;;0.93;0.50;;;;;;;23.74;44.31;100779.84;5075428;28;20035;-67
2022/07/03 11:31:16;;;;;;;0.40;0.40;;;;;;;23.76;43.95;100771.41;5075641;28;20115;-67
2022/07/03 11:33:45;;;;;;;0.68;0.50;;;;;;;23.74;43.98;100768.94;5075047;28;20482;-67
2022/07/03 11:36:16;;;;;;;0.40;0.40;;;;;;;23.74;43.69;100763.47;5075367;28;20028;-67
2022/07/03 11:38:51;;;;;;;0.40;0.40;;;;;;;23.75;44.00;100767.00;5075469;28;20082;-67